sensor_id;sensor_type;location;lat;lon;timestamp;temperature;humidity
51765;DHT22;37835;53.256;6.456;2024-03-02T00:01:58;7.50;99.90
51765;DHT22;37835;53.256;6.456;2024-03-02T00:04:24;7.50;99.90
51765;DHT22;37835;53.256;6.456;2024-03-02T00:06:53;7.40;99.90
51765;DHT22;37835;53.256;6.456;2024-03-02T00:09:20;7.50;99.90
51765;DHT22;37835;53.256;6.456;2024-03-02T00:11:46;7.40;99.90
51765;DHT22;37835;53.256;6.456;2024-03-02T00:14:12;7.40;99.90
51765;DHT22;37835;53.256;6.456;2024-03-02T00:16:37;7.40;99.90
51765;DHT22;37835;53.256;6.456;2024-03-02T00:19:05;7.50;99.90
51765;DHT22;37835;53.256;6.456;2024-03-02T00:21:31;7.50;99.90
51765;DHT22;37835;53.256;6.456;2024-03-02T00:23:58;7.40;99.90
51765;DHT22;37835;53.256;6.456;2024-03-02T00:26:24;7.40;99.90
51765;DHT22;37835;53.256;6.456;2024-03-02T00:28:54;7.40;99.90
51765;DHT22;37835;53.256;6.456;2024-03-02T00:31:22;7.40;99.90
51765;DHT22;37835;53.256;6.456;2024-03-02T00:33:48;7.30;99.90
51765;DHT22;37835;53.256;6.456;2024-03-02T00:36:16;7.40;99.90
51765;DHT22;37835;53.256;6.456;2024-03-02T00:41:22;7.30;99.90
51765;DHT22;37835;53.256;6.456;2024-03-02T00:43:57;7.30;99.90
51765;DHT22;37835;53.256;6.456;2024-03-02T00:46:24;7.30;99.90
51765;DHT22;37835;53.256;6.456;2024-03-02T00:48:56;7.40;99.90
51765;DHT22;37835;53.256;6.456;2024-03-02T00:51:23;7.40;99.90
51765;DHT22;37835;53.256;6.456;2024-03-02T00:53:53;7.30;99.90
51765;DHT22;37835;53.256;6.456;2024-03-02T00:56:22;7.30;99.90
51765;DHT22;37835;53.256;6.456;2024-03-02T00:58:49;7.30;99.90
51765;DHT22;37835;53.256;6.456;2024-03-02T01:01:15;7.40;99.90
51765;DHT22;37835;53.256;6.456;2024-03-02T01:03:42;7.30;99.90
51765;DHT22;37835;53.256;6.456;2024-03-02T01:06:08;7.30;99.90
51765;DHT22;37835;53.256;6.456;2024-03-02T01:08:37;7.30;99.90
51765;DHT22;37835;53.256;6.456;2024-03-02T01:11:04;7.40;99.90
51765;DHT22;37835;53.256;6.456;2024-03-02T01:13:31;7.30;99.90
51765;DHT22;37835;53.256;6.456;2024-03-02T01:15:57;7.30;99.90
51765;DHT22;37835;53.256;6.456;2024-03-02T01:18:23;7.40;99.90
51765;DHT22;37835;53.256;6.456;2024-03-02T01:20:49;7.30;99.90
51765;DHT22;37835;53.256;6.456;2024-03-02T01:23:18;7.30;99.90
51765;DHT22;37835;53.256;6.456;2024-03-02T01:25:45;7.30;99.90
51765;DHT22;37835;53.256;6.456;2024-03-02T01:28:12;7.30;99.90
51765;DHT22;37835;53.256;6.456;2024-03-02T01:30:37;7.30;99.90
51765;DHT22;37835;53.256;6.456;2024-03-02T01:33:03;7.20;99.90
51765;DHT22;37835;53.256;6.456;2024-03-02T01:35:31;7.30;99.90
51765;DHT22;37835;53.256;6.456;2024-03-02T01:37:57;7.50;99.90
51765;DHT22;37835;53.256;6.456;2024-03-02T01:40:23;7.50;99.90
51765;DHT22;37835;53.256;6.456;2024-03-02T01:42:52;7.30;99.90
51765;DHT22;37835;53.256;6.456;2024-03-02T01:45:19;7.30;99.90
51765;DHT22;37835;53.256;6.456;2024-03-02T01:47:45;7.40;99.90
51765;DHT22;37835;53.256;6.456;2024-03-02T01:50:11;7.30;99.90
51765;DHT22;37835;53.256;6.456;2024-03-02T01:52:37;7.20;99.90
51765;DHT22;37835;53.256;6.456;2024-03-02T01:55:04;7.30;99.90
51765;DHT22;37835;53.256;6.456;2024-03-02T01:57:30;7.30;99.90
51765;DHT22;37835;53.256;6.456;2024-03-02T01:59:56;7.30;99.90
51765;DHT22;37835;53.256;6.456;2024-03-02T02:02:22;7.30;99.90
51765;DHT22;37835;53.256;6.456;2024-03-02T02:04:47;7.30;99.90
51765;DHT22;37835;53.256;6.456;2024-03-02T02:07:13;7.30;99.90
51765;DHT22;37835;53.256;6.456;2024-03-02T02:09:41;7.30;99.90
51765;DHT22;37835;53.256;6.456;2024-03-02T02:12:08;7.30;99.90
51765;DHT22;37835;53.256;6.456;2024-03-02T02:14:33;7.30;99.90
51765;DHT22;37835;53.256;6.456;2024-03-02T02:16:59;7.30;99.90
51765;DHT22;37835;53.256;6.456;2024-03-02T02:19:25;7.30;99.90
51765;DHT22;37835;53.256;6.456;2024-03-02T02:21:51;7.40;99.90
51765;DHT22;37835;53.256;6.456;2024-03-02T02:24:16;7.40;99.90
51765;DHT22;37835;53.256;6.456;2024-03-02T02:26:42;7.40;99.90
51765;DHT22;37835;53.256;6.456;2024-03-02T02:29:07;7.40;99.90
51765;DHT22;37835;53.256;6.456;2024-03-02T02:31:40;7.40;99.90
51765;DHT22;37835;53.256;6.456;2024-03-02T02:34:07;7.50;99.90
51765;DHT22;37835;53.256;6.456;2024-03-02T02:36:33;7.40;99.90
51765;DHT22;37835;53.256;6.456;2024-03-02T02:39:02;7.60;99.90
51765;DHT22;37835;53.256;6.456;2024-03-02T02:41:32;7.50;99.90
51765;DHT22;37835;53.256;6.456;2024-03-02T02:43:58;7.50;99.90
51765;DHT22;37835;53.256;6.456;2024-03-02T02:46:23;7.50;99.90
51765;DHT22;37835;53.256;6.456;2024-03-02T02:48:49;7.50;99.90
51765;DHT22;37835;53.256;6.456;2024-03-02T02:51:17;7.50;99.90
51765;DHT22;37835;53.256;6.456;2024-03-02T02:53:43;7.50;99.90
51765;DHT22;37835;53.256;6.456;2024-03-02T02:56:09;7.60;99.90
51765;DHT22;37835;53.256;6.456;2024-03-02T02:58:34;7.60;99.90
51765;DHT22;37835;53.256;6.456;2024-03-02T03:01:01;7.60;99.90
51765;DHT22;37835;53.256;6.456;2024-03-02T03:03:26;7.70;99.90
51765;DHT22;37835;53.256;6.456;2024-03-02T03:05:52;7.70;99.90
51765;DHT22;37835;53.256;6.456;2024-03-02T03:08:18;7.70;99.90
51765;DHT22;37835;53.256;6.456;2024-03-02T03:10:44;7.70;99.90
51765;DHT22;37835;53.256;6.456;2024-03-02T03:13:10;7.70;99.90
51765;DHT22;37835;53.256;6.456;2024-03-02T03:15:36;7.70;99.90
51765;DHT22;37835;53.256;6.456;2024-03-02T03:18:03;7.70;99.90
51765;DHT22;37835;53.256;6.456;2024-03-02T03:20:30;7.70;99.90
51765;DHT22;37835;53.256;6.456;2024-03-02T03:22:56;7.70;99.90
51765;DHT22;37835;53.256;6.456;2024-03-02T03:25:22;7.70;99.90
51765;DHT22;37835;53.256;6.456;2024-03-02T03:27:48;7.70;99.90
51765;DHT22;37835;53.256;6.456;2024-03-02T03:30:14;7.70;99.90
51765;DHT22;37835;53.256;6.456;2024-03-02T03:32:40;7.80;99.90
51765;DHT22;37835;53.256;6.456;2024-03-02T03:35:06;7.80;99.90
51765;DHT22;37835;53.256;6.456;2024-03-02T03:37:32;7.80;99.90
51765;DHT22;37835;53.256;6.456;2024-03-02T03:40:05;7.80;99.90
51765;DHT22;37835;53.256;6.456;2024-03-02T03:42:37;7.70;99.90
51765;DHT22;37835;53.256;6.456;2024-03-02T03:45:04;7.70;99.90
51765;DHT22;37835;53.256;6.456;2024-03-02T03:47:31;7.70;99.90
51765;DHT22;37835;53.256;6.456;2024-03-02T03:49:57;7.60;99.90
51765;DHT22;37835;53.256;6.456;2024-03-02T03:52:23;7.60;99.90
51765;DHT22;37835;53.256;6.456;2024-03-02T03:54:49;7.60;99.90
51765;DHT22;37835;53.256;6.456;2024-03-02T03:57:14;7.60;99.90
51765;DHT22;37835;53.256;6.456;2024-03-02T03:59:40;7.60;99.90
51765;DHT22;37835;53.256;6.456;2024-03-02T04:02:06;7.50;99.90
51765;DHT22;37835;53.256;6.456;2024-03-02T04:04:32;7.50;99.90
51765;DHT22;37835;53.256;6.456;2024-03-02T04:06:59;7.50;99.90
51765;DHT22;37835;53.256;6.456;2024-03-02T04:09:24;7.50;99.90
51765;DHT22;37835;53.256;6.456;2024-03-02T04:11:51;7.50;99.90
51765;DHT22;37835;53.256;6.456;2024-03-02T04:14:17;7.50;99.90
51765;DHT22;37835;53.256;6.456;2024-03-02T04:16:42;7.50;99.90
51765;DHT22;37835;53.256;6.456;2024-03-02T04:19:08;7.50;99.90
51765;DHT22;37835;53.256;6.456;2024-03-02T04:21:33;7.50;99.90
51765;DHT22;37835;53.256;6.456;2024-03-02T04:23:59;7.50;99.90
51765;DHT22;37835;53.256;6.456;2024-03-02T04:26:25;7.50;99.90
51765;DHT22;37835;53.256;6.456;2024-03-02T04:28:52;7.40;99.90
51765;DHT22;37835;53.256;6.456;2024-03-02T04:31:18;7.50;99.90
51765;DHT22;37835;53.256;6.456;2024-03-02T04:33:43;7.50;99.90
51765;DHT22;37835;53.256;6.456;2024-03-02T04:36:09;7.50;99.90
51765;DHT22;37835;53.256;6.456;2024-03-02T04:38:35;7.50;99.90
51765;DHT22;37835;53.256;6.456;2024-03-02T04:41:01;7.50;99.90
51765;DHT22;37835;53.256;6.456;2024-03-02T04:43:27;7.50;99.90
51765;DHT22;37835;53.256;6.456;2024-03-02T04:45:52;7.50;99.90
51765;DHT22;37835;53.256;6.456;2024-03-02T04:48:18;7.50;99.90
51765;DHT22;37835;53.256;6.456;2024-03-02T04:50:44;7.40;99.90
51765;DHT22;37835;53.256;6.456;2024-03-02T04:53:10;7.50;99.90
51765;DHT22;37835;53.256;6.456;2024-03-02T04:55:36;7.50;99.90
51765;DHT22;37835;53.256;6.456;2024-03-02T04:58:04;7.40;99.90
51765;DHT22;37835;53.256;6.456;2024-03-02T05:00:30;7.40;99.90
51765;DHT22;37835;53.256;6.456;2024-03-02T05:02:56;7.40;99.90
51765;DHT22;37835;53.256;6.456;2024-03-02T05:05:22;7.40;99.90
51765;DHT22;37835;53.256;6.456;2024-03-02T05:07:47;7.40;99.90
51765;DHT22;37835;53.256;6.456;2024-03-02T05:10:13;7.40;99.90
51765;DHT22;37835;53.256;6.456;2024-03-02T05:12:39;7.40;99.90
51765;DHT22;37835;53.256;6.456;2024-03-02T05:15:08;7.40;99.90
51765;DHT22;37835;53.256;6.456;2024-03-02T05:17:36;7.30;99.90
51765;DHT22;37835;53.256;6.456;2024-03-02T05:20:02;7.30;99.90
51765;DHT22;37835;53.256;6.456;2024-03-02T05:22:29;7.30;99.90
51765;DHT22;37835;53.256;6.456;2024-03-02T05:24:54;7.30;99.90
51765;DHT22;37835;53.256;6.456;2024-03-02T05:27:20;7.30;99.90
51765;DHT22;37835;53.256;6.456;2024-03-02T05:29:46;7.30;99.90
51765;DHT22;37835;53.256;6.456;2024-03-02T05:32:12;7.40;99.90
51765;DHT22;37835;53.256;6.456;2024-03-02T05:34:38;7.30;99.90
51765;DHT22;37835;53.256;6.456;2024-03-02T05:37:04;7.20;99.90
51765;DHT22;37835;53.256;6.456;2024-03-02T05:39:29;7.20;99.90
51765;DHT22;37835;53.256;6.456;2024-03-02T05:41:55;7.30;99.90
51765;DHT22;37835;53.256;6.456;2024-03-02T05:44:20;7.40;99.90
51765;DHT22;37835;53.256;6.456;2024-03-02T05:46:48;7.20;99.90
51765;DHT22;37835;53.256;6.456;2024-03-02T05:49:13;7.30;99.90
51765;DHT22;37835;53.256;6.456;2024-03-02T05:51:39;7.20;99.90
51765;DHT22;37835;53.256;6.456;2024-03-02T05:54:05;7.30;99.90
51765;DHT22;37835;53.256;6.456;2024-03-02T05:56:30;7.20;99.90
51765;DHT22;37835;53.256;6.456;2024-03-02T05:58:56;7.30;99.90
51765;DHT22;37835;53.256;6.456;2024-03-02T06:01:46;7.40;99.90
51765;DHT22;37835;53.256;6.456;2024-03-02T06:04:18;7.30;99.90
51765;DHT22;37835;53.256;6.456;2024-03-02T06:06:44;7.30;99.90
51765;DHT22;37835;53.256;6.456;2024-03-02T06:09:09;7.30;99.90
51765;DHT22;37835;53.256;6.456;2024-03-02T06:11:39;7.40;99.90
51765;DHT22;37835;53.256;6.456;2024-03-02T06:14:07;7.30;99.90
51765;DHT22;37835;53.256;6.456;2024-03-02T06:16:34;7.30;99.90
51765;DHT22;37835;53.256;6.456;2024-03-02T06:19:00;7.30;99.90
51765;DHT22;37835;53.256;6.456;2024-03-02T06:21:26;7.30;99.90
51765;DHT22;37835;53.256;6.456;2024-03-02T06:23:52;7.30;99.90
51765;DHT22;37835;53.256;6.456;2024-03-02T06:26:18;7.30;99.90
51765;DHT22;37835;53.256;6.456;2024-03-02T06:28:45;7.30;99.90
51765;DHT22;37835;53.256;6.456;2024-03-02T06:31:11;7.30;99.90
51765;DHT22;37835;53.256;6.456;2024-03-02T06:33:37;7.30;99.90
51765;DHT22;37835;53.256;6.456;2024-03-02T06:36:03;7.30;99.90
51765;DHT22;37835;53.256;6.456;2024-03-02T06:38:29;7.30;99.90
51765;DHT22;37835;53.256;6.456;2024-03-02T06:40:57;7.30;99.90
51765;DHT22;37835;53.256;6.456;2024-03-02T06:43:23;7.50;99.90
51765;DHT22;37835;53.256;6.456;2024-03-02T06:45:50;7.30;99.90
51765;DHT22;37835;53.256;6.456;2024-03-02T06:48:19;7.40;99.90
51765;DHT22;37835;53.256;6.456;2024-03-02T06:50:47;7.30;99.90
51765;DHT22;37835;53.256;6.456;2024-03-02T06:53:13;7.30;99.90
51765;DHT22;37835;53.256;6.456;2024-03-02T06:55:39;7.30;99.90
51765;DHT22;37835;53.256;6.456;2024-03-02T06:58:05;7.40;99.90
51765;DHT22;37835;53.256;6.456;2024-03-02T07:00:30;7.30;99.90
51765;DHT22;37835;53.256;6.456;2024-03-02T07:02:56;7.30;99.90
51765;DHT22;37835;53.256;6.456;2024-03-02T07:05:22;7.40;99.90
51765;DHT22;37835;53.256;6.456;2024-03-02T07:07:47;7.40;99.90
51765;DHT22;37835;53.256;6.456;2024-03-02T07:10:13;7.30;99.90
51765;DHT22;37835;53.256;6.456;2024-03-02T07:12:39;7.40;99.90
51765;DHT22;37835;53.256;6.456;2024-03-02T07:15:05;7.40;99.90
51765;DHT22;37835;53.256;6.456;2024-03-02T07:17:31;7.40;99.90
51765;DHT22;37835;53.256;6.456;2024-03-02T07:19:57;7.40;99.90
51765;DHT22;37835;53.256;6.456;2024-03-02T07:22:23;7.40;99.90
51765;DHT22;37835;53.256;6.456;2024-03-02T07:24:49;7.40;99.90
51765;DHT22;37835;53.256;6.456;2024-03-02T07:27:17;7.50;99.90
51765;DHT22;37835;53.256;6.456;2024-03-02T07:29:43;7.50;99.90
51765;DHT22;37835;53.256;6.456;2024-03-02T07:32:10;7.50;99.90
51765;DHT22;37835;53.256;6.456;2024-03-02T07:34:35;7.50;99.90
51765;DHT22;37835;53.256;6.456;2024-03-02T07:37:02;7.50;99.90
51765;DHT22;37835;53.256;6.456;2024-03-02T07:39:28;7.50;99.90
51765;DHT22;37835;53.256;6.456;2024-03-02T07:41:55;6.50;99.90
51765;DHT22;37835;53.256;6.456;2024-03-02T07:44:20;7.40;99.90
51765;DHT22;37835;53.256;6.456;2024-03-02T07:46:47;7.50;99.90
51765;DHT22;37835;53.256;6.456;2024-03-02T07:49:13;7.50;99.90
51765;DHT22;37835;53.256;6.456;2024-03-02T07:51:39;7.50;99.90
51765;DHT22;37835;53.256;6.456;2024-03-02T07:54:05;7.70;99.90
51765;DHT22;37835;53.256;6.456;2024-03-02T07:56:30;7.50;99.90
51765;DHT22;37835;53.256;6.456;2024-03-02T07:58:56;7.50;99.90
51765;DHT22;37835;53.256;6.456;2024-03-02T08:01:30;7.50;99.90
51765;DHT22;37835;53.256;6.456;2024-03-02T08:04:02;7.50;99.90
51765;DHT22;37835;53.256;6.456;2024-03-02T08:06:31;7.50;99.90
51765;DHT22;37835;53.256;6.456;2024-03-02T08:08:57;7.50;99.90
51765;DHT22;37835;53.256;6.456;2024-03-02T08:11:23;7.50;99.90
51765;DHT22;37835;53.256;6.456;2024-03-02T08:13:49;7.60;99.90
51765;DHT22;37835;53.256;6.456;2024-03-02T08:16:19;7.60;99.90
51765;DHT22;37835;53.256;6.456;2024-03-02T08:18:48;7.60;99.90
51765;DHT22;37835;53.256;6.456;2024-03-02T08:21:14;7.70;99.90
51765;DHT22;37835;53.256;6.456;2024-03-02T08:23:40;7.70;99.90
51765;DHT22;37835;53.256;6.456;2024-03-02T08:26:07;7.80;99.90
51765;DHT22;37835;53.256;6.456;2024-03-02T08:28:34;7.90;99.90
51765;DHT22;37835;53.256;6.456;2024-03-02T08:31:06;7.90;99.90
51765;DHT22;37835;53.256;6.456;2024-03-02T08:33:32;8.00;99.90
51765;DHT22;37835;53.256;6.456;2024-03-02T08:35:59;8.00;99.90
51765;DHT22;37835;53.256;6.456;2024-03-02T08:38:25;8.10;99.90
51765;DHT22;37835;53.256;6.456;2024-03-02T08:40:50;8.30;99.90
51765;DHT22;37835;53.256;6.456;2024-03-02T08:43:17;8.20;99.90
51765;DHT22;37835;53.256;6.456;2024-03-02T08:45:43;8.30;99.90
51765;DHT22;37835;53.256;6.456;2024-03-02T08:48:09;8.30;99.90
51765;DHT22;37835;53.256;6.456;2024-03-02T08:50:35;8.30;99.90
51765;DHT22;37835;53.256;6.456;2024-03-02T08:53:00;8.30;99.90
51765;DHT22;37835;53.256;6.456;2024-03-02T08:55:26;8.30;99.90
51765;DHT22;37835;53.256;6.456;2024-03-02T08:57:52;8.30;99.90
51765;DHT22;37835;53.256;6.456;2024-03-02T09:00:18;8.40;99.90
51765;DHT22;37835;53.256;6.456;2024-03-02T09:02:44;8.40;99.90
51765;DHT22;37835;53.256;6.456;2024-03-02T09:05:10;8.40;99.90
51765;DHT22;37835;53.256;6.456;2024-03-02T09:07:36;8.40;99.90
51765;DHT22;37835;53.256;6.456;2024-03-02T09:10:05;8.40;99.90
51765;DHT22;37835;53.256;6.456;2024-03-02T09:12:31;8.40;99.90
51765;DHT22;37835;53.256;6.456;2024-03-02T09:14:58;8.40;99.90
51765;DHT22;37835;53.256;6.456;2024-03-02T09:17:24;8.50;99.90
51765;DHT22;37835;53.256;6.456;2024-03-02T09:19:49;8.50;99.90
51765;DHT22;37835;53.256;6.456;2024-03-02T09:22:18;8.50;99.90
51765;DHT22;37835;53.256;6.456;2024-03-02T09:24:44;8.60;99.90
51765;DHT22;37835;53.256;6.456;2024-03-02T09:27:10;8.60;99.90
51765;DHT22;37835;53.256;6.456;2024-03-02T09:29:35;8.70;99.90
51765;DHT22;37835;53.256;6.456;2024-03-02T09:32:01;8.70;99.90
51765;DHT22;37835;53.256;6.456;2024-03-02T09:34:27;8.80;99.90
51765;DHT22;37835;53.256;6.456;2024-03-02T09:36:53;8.90;99.90
51765;DHT22;37835;53.256;6.456;2024-03-02T09:39:19;8.90;99.90
51765;DHT22;37835;53.256;6.456;2024-03-02T09:41:45;8.90;99.90
51765;DHT22;37835;53.256;6.456;2024-03-02T09:44:10;9.00;99.90
51765;DHT22;37835;53.256;6.456;2024-03-02T09:46:36;9.10;99.90
51765;DHT22;37835;53.256;6.456;2024-03-02T09:49:02;9.00;99.90
51765;DHT22;37835;53.256;6.456;2024-03-02T09:51:28;9.00;99.90
51765;DHT22;37835;53.256;6.456;2024-03-02T09:53:55;9.10;99.90
51765;DHT22;37835;53.256;6.456;2024-03-02T09:56:23;9.10;99.90
51765;DHT22;37835;53.256;6.456;2024-03-02T09:58:49;9.20;99.90
51765;DHT22;37835;53.256;6.456;2024-03-02T10:01:15;9.20;99.90
51765;DHT22;37835;53.256;6.456;2024-03-02T10:03:41;9.30;99.90
51765;DHT22;37835;53.256;6.456;2024-03-02T10:06:22;9.30;99.90
51765;DHT22;37835;53.256;6.456;2024-03-02T10:08:48;9.20;99.90
51765;DHT22;37835;53.256;6.456;2024-03-02T10:14:13;9.20;99.90
51765;DHT22;37835;53.256;6.456;2024-03-02T10:16:41;9.20;99.90
51765;DHT22;37835;53.256;6.456;2024-03-02T10:19:16;9.20;99.90
51765;DHT22;37835;53.256;6.456;2024-03-02T10:21:44;9.30;99.90
51765;DHT22;37835;53.256;6.456;2024-03-02T10:24:10;9.30;99.90
51765;DHT22;37835;53.256;6.456;2024-03-02T10:26:44;9.30;99.90
51765;DHT22;37835;53.256;6.456;2024-03-02T10:29:11;9.30;99.90
51765;DHT22;37835;53.256;6.456;2024-03-02T10:31:41;9.40;99.90
51765;DHT22;37835;53.256;6.456;2024-03-02T10:34:08;9.50;99.90
51765;DHT22;37835;53.256;6.456;2024-03-02T10:36:34;9.50;99.90
51765;DHT22;37835;53.256;6.456;2024-03-02T10:39:09;9.60;99.90
51765;DHT22;37835;53.256;6.456;2024-03-02T10:41:38;9.60;99.90
51765;DHT22;37835;53.256;6.456;2024-03-02T10:44:14;9.70;99.90
51765;DHT22;37835;53.256;6.456;2024-03-02T10:46:40;9.80;99.90
51765;DHT22;37835;53.256;6.456;2024-03-02T10:49:05;9.80;99.90
51765;DHT22;37835;53.256;6.456;2024-03-02T10:51:33;9.90;99.90
51765;DHT22;37835;53.256;6.456;2024-03-02T10:54:00;9.90;99.90
51765;DHT22;37835;53.256;6.456;2024-03-02T10:56:43;9.90;99.90
51765;DHT22;37835;53.256;6.456;2024-03-02T10:59:37;9.90;99.90
51765;DHT22;37835;53.256;6.456;2024-03-02T11:02:07;9.90;99.90
51765;DHT22;37835;53.256;6.456;2024-03-02T11:04:35;9.90;99.90
51765;DHT22;37835;53.256;6.456;2024-03-02T11:07:08;10.00;99.90
51765;DHT22;37835;53.256;6.456;2024-03-02T11:09:42;10.00;99.90
51765;DHT22;37835;53.256;6.456;2024-03-02T11:12:18;10.10;99.90
51765;DHT22;37835;53.256;6.456;2024-03-02T11:14:44;10.20;99.90
51765;DHT22;37835;53.256;6.456;2024-03-02T11:17:14;10.20;99.90
51765;DHT22;37835;53.256;6.456;2024-03-02T11:19:47;10.30;99.90
51765;DHT22;37835;53.256;6.456;2024-03-02T11:22:14;10.30;99.90
51765;DHT22;37835;53.256;6.456;2024-03-02T11:24:51;10.30;99.90
51765;DHT22;37835;53.256;6.456;2024-03-02T11:33:00;10.40;99.90
51765;DHT22;37835;53.256;6.456;2024-03-02T11:35:26;10.50;99.90
51765;DHT22;37835;53.256;6.456;2024-03-02T11:37:54;10.50;99.90
51765;DHT22;37835;53.256;6.456;2024-03-02T11:40:24;10.50;99.90
51765;DHT22;37835;53.256;6.456;2024-03-02T11:42:51;10.60;99.90
51765;DHT22;37835;53.256;6.456;2024-03-02T11:45:17;10.60;99.90
51765;DHT22;37835;53.256;6.456;2024-03-02T11:47:57;11.60;99.90
51765;DHT22;37835;53.256;6.456;2024-03-02T11:50:30;10.70;99.90
51765;DHT22;37835;53.256;6.456;2024-03-02T11:53:00;10.70;99.90
51765;DHT22;37835;53.256;6.456;2024-03-02T11:55:26;10.80;99.90
51765;DHT22;37835;53.256;6.456;2024-03-02T11:57:55;10.80;99.90
51765;DHT22;37835;53.256;6.456;2024-03-02T12:00:21;10.90;99.90
51765;DHT22;37835;53.256;6.456;2024-03-02T12:03:02;11.00;99.90
51765;DHT22;37835;53.256;6.456;2024-03-02T12:05:28;11.10;99.90
51765;DHT22;37835;53.256;6.456;2024-03-02T12:07:58;11.20;99.90
51765;DHT22;37835;53.256;6.456;2024-03-02T12:10:24;11.20;99.90
51765;DHT22;37835;53.256;6.456;2024-03-02T12:13:00;11.30;99.90
51765;DHT22;37835;53.256;6.456;2024-03-02T12:15:29;11.40;99.90
51765;DHT22;37835;53.256;6.456;2024-03-02T12:17:58;11.40;99.90
51765;DHT22;37835;53.256;6.456;2024-03-02T12:20:25;11.40;99.90
51765;DHT22;37835;53.256;6.456;2024-03-02T12:22:55;11.50;99.90
51765;DHT22;37835;53.256;6.456;2024-03-02T12:25:22;11.50;99.90
51765;DHT22;37835;53.256;6.456;2024-03-02T12:27:54;11.50;99.90
51765;DHT22;37835;53.256;6.456;2024-03-02T12:30:21;11.60;99.90
51765;DHT22;37835;53.256;6.456;2024-03-02T12:32:47;11.70;99.90
51765;DHT22;37835;53.256;6.456;2024-03-02T12:35:14;11.80;99.90
51765;DHT22;37835;53.256;6.456;2024-03-02T12:40:10;11.80;99.90
51765;DHT22;37835;53.256;6.456;2024-03-02T12:42:37;11.80;99.90
51765;DHT22;37835;53.256;6.456;2024-03-02T12:45:02;11.90;99.90
51765;DHT22;37835;53.256;6.456;2024-03-02T12:47:29;11.90;99.90
51765;DHT22;37835;53.256;6.456;2024-03-02T12:49:55;12.00;99.90
51765;DHT22;37835;53.256;6.456;2024-03-02T12:52:22;12.00;99.90
51765;DHT22;37835;53.256;6.456;2024-03-02T12:54:48;12.10;99.90
51765;DHT22;37835;53.256;6.456;2024-03-02T12:57:17;12.10;99.90
51765;DHT22;37835;53.256;6.456;2024-03-02T12:59:45;12.20;99.90
51765;DHT22;37835;53.256;6.456;2024-03-02T13:02:17;12.20;99.90
51765;DHT22;37835;53.256;6.456;2024-03-02T13:04:44;12.30;99.90
51765;DHT22;37835;53.256;6.456;2024-03-02T13:07:13;12.30;99.90
51765;DHT22;37835;53.256;6.456;2024-03-02T13:09:39;12.40;99.90
51765;DHT22;37835;53.256;6.456;2024-03-02T13:12:05;12.40;99.90
51765;DHT22;37835;53.256;6.456;2024-03-02T13:14:35;12.50;99.90
51765;DHT22;37835;53.256;6.456;2024-03-02T13:17:01;12.50;99.90
51765;DHT22;37835;53.256;6.456;2024-03-02T13:19:30;12.50;99.90
51765;DHT22;37835;53.256;6.456;2024-03-02T13:21:57;12.50;99.90
51765;DHT22;37835;53.256;6.456;2024-03-02T13:24:23;12.50;99.90
51765;DHT22;37835;53.256;6.456;2024-03-02T13:26:53;12.10;99.90
51765;DHT22;37835;53.256;6.456;2024-03-02T13:29:22;12.50;99.90
51765;DHT22;37835;53.256;6.456;2024-03-02T13:31:48;12.50;99.90
51765;DHT22;37835;53.256;6.456;2024-03-02T13:34:14;12.50;99.90
51765;DHT22;37835;53.256;6.456;2024-03-02T13:36:39;12.50;99.90
51765;DHT22;37835;53.256;6.456;2024-03-02T13:39:05;12.50;99.90
51765;DHT22;37835;53.256;6.456;2024-03-02T13:41:34;12.60;99.90
51765;DHT22;37835;53.256;6.456;2024-03-02T13:44:00;12.60;99.90
51765;DHT22;37835;53.256;6.456;2024-03-02T13:46:27;12.70;99.90
51765;DHT22;37835;53.256;6.456;2024-03-02T13:48:54;12.80;99.90
51765;DHT22;37835;53.256;6.456;2024-03-02T13:51:20;12.80;99.90
51765;DHT22;37835;53.256;6.456;2024-03-02T13:53:46;12.80;99.90
51765;DHT22;37835;53.256;6.456;2024-03-02T13:56:12;12.90;99.90
51765;DHT22;37835;53.256;6.456;2024-03-02T13:58:37;12.80;99.90
51765;DHT22;37835;53.256;6.456;2024-03-02T14:01:04;12.80;99.90
51765;DHT22;37835;53.256;6.456;2024-03-02T14:03:31;12.80;99.90
51765;DHT22;37835;53.256;6.456;2024-03-02T14:05:56;12.80;99.90
51765;DHT22;37835;53.256;6.456;2024-03-02T14:08:22;12.80;99.90
51765;DHT22;37835;53.256;6.456;2024-03-02T14:10:48;12.90;99.90
51765;DHT22;37835;53.256;6.456;2024-03-02T14:13:14;12.80;99.90
51765;DHT22;37835;53.256;6.456;2024-03-02T14:15:41;12.90;99.90
51765;DHT22;37835;53.256;6.456;2024-03-02T14:18:07;12.90;99.90
51765;DHT22;37835;53.256;6.456;2024-03-02T14:20:35;12.80;99.90
51765;DHT22;37835;53.256;6.456;2024-03-02T14:23:01;12.80;99.90
51765;DHT22;37835;53.256;6.456;2024-03-02T14:25:29;12.70;99.90
51765;DHT22;37835;53.256;6.456;2024-03-02T14:27:58;12.70;99.90
51765;DHT22;37835;53.256;6.456;2024-03-02T14:30:24;12.60;99.90
51765;DHT22;37835;53.256;6.456;2024-03-02T14:32:50;12.60;99.90
51765;DHT22;37835;53.256;6.456;2024-03-02T14:35:16;12.60;99.90
51765;DHT22;37835;53.256;6.456;2024-03-02T14:37:42;12.60;99.90
51765;DHT22;37835;53.256;6.456;2024-03-02T14:40:08;12.60;99.90
51765;DHT22;37835;53.256;6.456;2024-03-02T14:42:35;12.60;99.90
51765;DHT22;37835;53.256;6.456;2024-03-02T14:45:02;12.50;99.90
51765;DHT22;37835;53.256;6.456;2024-03-02T14:47:33;13.00;99.90
51765;DHT22;37835;53.256;6.456;2024-03-02T14:50:01;12.50;99.90
51765;DHT22;37835;53.256;6.456;2024-03-02T14:52:32;12.50;99.90
51765;DHT22;37835;53.256;6.456;2024-03-02T14:54:58;12.60;99.90
51765;DHT22;37835;53.256;6.456;2024-03-02T14:57:23;12.50;99.90
51765;DHT22;37835;53.256;6.456;2024-03-02T14:59:49;12.50;99.90
51765;DHT22;37835;53.256;6.456;2024-03-02T15:02:15;12.50;99.90
51765;DHT22;37835;53.256;6.456;2024-03-02T15:04:40;12.60;99.90
51765;DHT22;37835;53.256;6.456;2024-03-02T15:07:06;12.50;99.90
51765;DHT22;37835;53.256;6.456;2024-03-02T15:09:32;12.60;99.90
51765;DHT22;37835;53.256;6.456;2024-03-02T15:12:00;12.60;99.90
51765;DHT22;37835;53.256;6.456;2024-03-02T15:14:26;12.60;99.90
51765;DHT22;37835;53.256;6.456;2024-03-02T15:16:51;12.60;99.90
51765;DHT22;37835;53.256;6.456;2024-03-02T15:19:17;12.60;99.90
51765;DHT22;37835;53.256;6.456;2024-03-02T15:21:43;12.60;99.90
51765;DHT22;37835;53.256;6.456;2024-03-02T15:24:08;12.70;99.90
51765;DHT22;37835;53.256;6.456;2024-03-02T15:26:34;12.70;99.90
51765;DHT22;37835;53.256;6.456;2024-03-02T15:29:00;12.80;99.90
51765;DHT22;37835;53.256;6.456;2024-03-02T15:31:27;12.80;99.90
51765;DHT22;37835;53.256;6.456;2024-03-02T15:33:52;12.80;99.90
51765;DHT22;37835;53.256;6.456;2024-03-02T15:36:19;12.80;99.90
51765;DHT22;37835;53.256;6.456;2024-03-02T15:38:44;12.80;99.90
51765;DHT22;37835;53.256;6.456;2024-03-02T15:41:10;12.90;99.90
51765;DHT22;37835;53.256;6.456;2024-03-02T15:43:36;12.90;99.90
51765;DHT22;37835;53.256;6.456;2024-03-02T15:46:04;12.90;99.90
51765;DHT22;37835;53.256;6.456;2024-03-02T15:48:30;12.90;99.90
51765;DHT22;37835;53.256;6.456;2024-03-02T15:50:58;12.90;99.90
51765;DHT22;37835;53.256;6.456;2024-03-02T15:53:23;12.90;99.90
51765;DHT22;37835;53.256;6.456;2024-03-02T15:55:49;13.00;99.90